Time;durP1;ratioP1;P1;durP2;ratioP2;P2;SDS_P1;SDS_P2;PMS_P1;PMS_P2;Temp;Humidity;BMP_temperature;BMP_pressure;BME280_temperature;BME280_humidity;BME280_pressure;Samples;Min_cycle;Max_cycle;Signal;HPM_P1;HPM_P2
2022/05/27 00:01:14;;;;;;;4.18;1.23;;;;;;;15.88;62.63;102024.97;4998869;28;20051;-65
2022/05/27 00:03:42;;;;;;;5.90;1.42;;;;;;;15.93;62.67;102019.28;4981152;28;20058;-71
2022/05/27 00:06:10;;;;;;;5.88;1.40;;;;;;;16.10;62.97;102013.81;4991792;28;20061;-65
2022/05/27 00:08:38;;;;;;;4.75;1.40;;;;;;;16.22;61.71;102019.59;4978063;28;20062;-64
2022/05/27 00:11:05;;;;;;;6.03;1.48;;;;;;;15.92;62.33;102017.66;4994256;28;20073;-65
2022/05/27 00:13:33;;;;;;;8.13;1.38;;;;;;;15.92;62.20;102010.13;4979751;28;20054;-65
2022/05/27 00:16:01;;;;;;;4.78;1.30;;;;;;;16.28;62.39;102013.59;4982587;28;20050;-64
2022/05/27 00:18:28;;;;;;;5.50;1.40;;;;;;;16.17;61.67;102011.41;4998520;28;20046;-64
2022/05/27 00:20:57;;;;;;;5.78;1.10;;;;;;;16.12;62.04;102014.31;4997503;28;20050;-64
2022/05/27 00:23:25;;;;;;;7.50;1.55;;;;;;;15.76;63.27;102015.25;4998896;28;20061;-64
2022/05/27 00:25:52;;;;;;;4.60;1.40;;;;;;;15.99;63.09;102006.91;4997496;28;20056;-63
2022/05/27 00:28:20;;;;;;;9.40;1.45;;;;;;;16.00;62.91;102001.03;4996734;28;20486;-65
2022/05/27 00:30:48;;;;;;;5.50;1.55;;;;;;;15.78;63.25;102003.81;4998703;28;20414;-70
2022/05/27 00:33:15;;;;;;;5.18;1.40;;;;;;;15.88;63.83;102003.59;4998494;28;20073;-71
2022/05/27 00:35:43;;;;;;;8.57;1.50;;;;;;;15.70;64.09;101991.53;4998245;28;20502;-71
2022/05/27 00:38:10;;;;;;;5.72;1.55;;;;;;;16.00;63.55;101994.66;5010055;28;20047;-71
2022/05/27 00:40:41;;;;;;;7.45;1.63;;;;;;;16.01;63.66;101985.97;4998285;28;20053;-71
2022/05/27 00:43:08;;;;;;;4.40;1.30;;;;;;;16.14;63.43;101985.09;4980919;28;20119;-71
2022/05/27 00:45:38;;;;;;;6.35;1.65;;;;;;;16.32;62.76;101977.63;5013263;28;20050;-72
2022/05/27 00:48:12;;;;;;;5.25;1.65;;;;;;;16.07;63.82;101976.38;4996846;28;20065;-73
2022/05/27 00:50:41;;;;;;;6.07;1.48;;;;;;;16.02;64.06;101970.13;5001574;28;20051;-71
2022/05/27 00:53:12;;;;;;;5.03;1.35;;;;;;;16.32;63.53;101981.22;4978550;28;20055;-71
2022/05/27 00:55:52;;;;;;;6.80;1.27;;;;;;;16.10;63.59;101983.25;4969411;28;20050;-71
2022/05/27 00:58:26;;;;;;;6.28;1.38;;;;;;;16.02;64.23;101984.03;5012660;28;20409;-63
2022/05/27 01:00:55;;;;;;;6.85;1.77;;;;;;;16.12;64.20;101986.53;4980004;28;20065;-63
2022/05/27 01:03:25;;;;;;;4.72;1.52;;;;;;;15.72;65.42;101989.25;4997737;28;20046;-63
2022/05/27 01:05:54;;;;;;;7.03;1.80;;;;;;;15.65;66.23;101988.88;4995629;28;20532;-71
2022/05/27 01:08:22;;;;;;;6.22;1.50;;;;;;;15.90;65.83;101973.50;4995041;28;20544;-71
2022/05/27 01:11:24;;;;;;;6.68;1.50;;;;;;;15.96;65.08;101980.56;4997626;28;20054;-71
2022/05/27 01:14:14;;;;;;;6.20;1.50;;;;;;;15.72;65.64;101989.25;4996767;28;20102;-64
2022/05/27 01:16:58;;;;;;;5.82;1.55;;;;;;;15.76;66.33;101972.75;4994827;28;20051;-65
2022/05/27 01:23:17;;;;;;;5.68;1.48;;;;;;;15.55;66.93;101971.66;4979345;28;20055;-70
2022/05/27 01:25:59;;;;;;;7.78;1.50;;;;;;;15.41;67.32;101971.69;4977968;28;20054;-70
2022/05/27 01:28:39;;;;;;;9.63;1.98;;;;;;;15.62;66.75;101970.06;4992684;28;20069;-70
2022/05/27 01:31:21;;;;;;;6.57;1.60;;;;;;;15.62;66.70;101961.72;4986285;28;20058;-71
2022/05/27 01:34:07;;;;;;;6.35;1.70;;;;;;;15.69;66.44;101977.97;4977938;28;20450;-71
2022/05/27 01:37:14;;;;;;;6.50;1.50;;;;;;;16.03;65.44;101974.53;4978067;28;20050;-71
2022/05/27 01:39:53;;;;;;;8.20;1.80;;;;;;;15.96;65.25;101976.97;5002207;28;20516;-71
2022/05/27 01:42:30;;;;;;;5.18;1.42;;;;;;;15.97;65.40;101961.94;4979719;28;20054;-72
2022/05/27 01:45:10;;;;;;;8.40;1.50;;;;;;;15.91;65.87;101963.19;4997038;28;20062;-64
2022/05/27 01:47:58;;;;;;;8.27;1.60;;;;;;;15.70;65.98;101972.09;4997169;28;20398;-71
2022/05/27 01:50:44;;;;;;;5.18;1.65;;;;;;;15.63;66.58;101963.38;4980404;28;20054;-71
2022/05/27 01:53:13;;;;;;;7.60;1.48;;;;;;;15.63;66.35;101976.44;4979554;28;20054;-71
2022/05/27 01:55:53;;;;;;;5.28;1.52;;;;;;;15.48;66.64;101965.72;4993220;28;20053;-73
2022/05/27 01:58:30;;;;;;;6.80;1.83;;;;;;;15.64;66.10;101967.78;5010498;28;20046;-64
2022/05/27 02:00:57;;;;;;;5.70;1.65;;;;;;;15.54;66.07;101968.06;4995709;28;20494;-64
2022/05/27 02:03:32;;;;;;;4.43;1.58;;;;;;;15.57;66.24;101970.19;4994936;28;20050;-64
2022/05/27 02:06:07;;;;;;;8.63;2.10;;;;;;;15.63;66.18;101974.50;4995241;28;20518;-65
2022/05/27 02:08:54;;;;;;;6.93;1.75;;;;;;;15.16;67.46;101969.53;4977346;28;20514;-64
2022/05/27 02:11:23;;;;;;;10.40;2.35;;;;;;;15.46;66.76;101970.78;4978372;28;20054;-64
2022/05/27 02:13:53;;;;;;;6.90;1.77;;;;;;;15.09;67.24;101971.91;4978756;28;20065;-70
2022/05/27 02:16:21;;;;;;;;;;;;;;;15.20;67.46;101975.28;4996904;28;20050;-70
2022/05/27 02:19:22;;;;;;;9.57;2.05;;;;;;;15.10;67.77;101970.75;4989741;28;19922;-64
2022/05/27 02:21:57;;;;;;;12.88;2.42;;;;;;;14.96;68.14;101975.53;4955111;28;20063;-71
2022/05/27 02:24:36;;;;;;;7.53;1.80;;;;;;;15.00;68.42;101971.00;4994949;28;20054;-70
2022/05/27 02:27:27;;;;;;;9.43;2.50;;;;;;;15.29;67.63;101974.19;4971273;28;20055;-71
2022/05/27 02:29:58;;;;;;;9.23;2.00;;;;;;;15.24;67.48;101977.09;4956623;28;20595;-71
2022/05/27 02:32:39;;;;;;;9.88;1.90;;;;;;;15.16;67.45;101969.53;4987824;28;20066;-65
2022/05/27 02:35:25;;;;;;;8.88;1.92;;;;;;;15.18;67.93;101972.81;4992087;28;20498;-64
2022/05/27 02:37:54;;;;;;;8.38;2.50;;;;;;;15.57;66.70;101969.38;5002176;28;20057;-64
2022/05/27 02:40:23;;;;;;;8.63;2.43;;;;;;;15.46;66.93;101965.22;4976533;28;20054;-72
2022/05/27 02:43:08;;;;;;;7.40;2.17;;;;;;;15.22;67.61;101973.81;4959527;28;20051;-71
2022/05/27 02:45:59;;;;;;;8.07;2.00;;;;;;;15.31;67.66;101974.69;4975365;28;20066;-71
2022/05/27 02:48:34;;;;;;;9.35;2.47;;;;;;;15.39;67.48;101976.75;4962145;28;20051;-71
2022/05/27 02:51:24;;;;;;;9.70;2.30;;;;;;;14.90;68.90;101974.03;4976806;28;20058;-64
2022/05/27 02:54:00;;;;;;;13.70;2.63;;;;;;;15.00;69.21;101968.22;4975495;28;20050;-64
2022/05/27 02:56:39;;;;;;;9.40;2.10;;;;;;;15.19;68.24;101976.38;4958230;28;20410;-72
2022/05/27 02:59:09;;;;;;;7.93;1.80;;;;;;;14.96;69.29;101966.41;4960003;28;20051;-63
2022/05/27 03:01:37;;;;;;;9.27;2.03;;;;;;;14.93;69.35;101970.63;4975348;28;20059;-65
2022/05/27 03:04:06;;;;;;;8.35;2.33;;;;;;;14.72;70.39;101977.75;4975865;28;20074;-64
2022/05/27 03:06:52;;;;;;;11.23;2.53;;;;;;;14.44;71.25;101985.28;4976069;28;20525;-64
2022/05/27 03:09:38;;;;;;;7.88;2.30;;;;;;;14.44;71.87;101981.66;4956098;28;20051;-71
2022/05/27 03:12:13;;;;;;;10.05;2.20;;;;;;;14.74;70.40;101982.97;4942450;28;20055;-64
2022/05/27 03:14:50;;;;;;;8.23;2.33;;;;;;;14.70;69.65;101977.22;4943490;28;20414;-70
2022/05/27 03:17:43;;;;;;;9.02;1.60;;;;;;;14.24;70.44;101982.06;4975704;28;20378;-63
2022/05/27 03:20:22;;;;;;;9.38;2.05;;;;;;;14.49;70.15;101985.16;4943280;29;20414;-64
2022/05/27 03:22:52;;;;;;;10.43;2.72;;;;;;;14.16;71.08;101977.22;4956982;29;20054;-64
2022/05/27 03:25:38;;;;;;;;;;;;;;;14.35;70.44;101981.56;4957172;29;20066;-62
2022/05/27 03:28:49;;;;;;;9.15;2.33;;;;;;;14.31;71.00;101985.28;4955785;29;19929;-64
2022/05/27 03:31:33;;;;;;;12.40;2.22;;;;;;;14.60;70.50;101988.53;4954969;28;20069;-71
2022/05/27 03:34:13;;;;;;;12.90;2.53;;;;;;;14.34;70.93;101987.44;4980126;28;20433;-64
2022/05/27 03:37:08;;;;;;;10.80;2.20;;;;;;;14.35;70.92;101986.28;4978654;28;20043;-64
2022/05/27 03:39:48;;;;;;;11.02;2.60;;;;;;;14.39;71.19;101987.31;4962982;28;20050;-72
2022/05/27 03:42:19;;;;;;;8.65;2.83;;;;;;;14.25;71.30;101981.75;4979048;28;20050;-73
2022/05/27 03:45:14;;;;;;;9.93;2.45;;;;;;;14.27;71.16;101975.94;4980019;28;20055;-65
2022/05/27 03:47:42;;;;;;;8.13;2.38;;;;;;;14.14;71.60;101980.28;4955609;28;20063;-67
2022/05/27 03:50:15;;;;;;;10.43;2.53;;;;;;;14.32;70.64;101978.59;4980059;28;20057;-64
2022/05/27 03:52:45;;;;;;;10.65;2.33;;;;;;;14.23;71.18;101977.63;4962759;28;20078;-65
2022/05/27 03:55:15;;;;;;;8.45;2.83;;;;;;;14.31;70.90;101988.06;4992500;28;20846;-64
2022/05/27 03:57:43;;;;;;;9.73;2.70;;;;;;;14.21;71.21;101989.03;4978355;28;20430;-71
2022/05/27 04:00:12;;;;;;;8.25;2.67;;;;;;;13.98;71.96;101981.69;4979598;28;20509;-71
2022/05/27 04:02:40;;;;;;;11.55;2.72;;;;;;;14.10;72.17;101986.75;4978408;28;20059;-65
2022/05/27 04:05:10;;;;;;;8.68;2.58;;;;;;;14.25;71.83;101987.28;4979124;28;20113;-63
2022/05/27 04:07:38;;;;;;;10.60;2.88;;;;;;;14.68;70.24;101975.91;4960686;28;20058;-65
2022/05/27 04:10:08;;;;;;;10.77;3.10;;;;;;;14.52;70.78;101983.75;4961951;28;20043;-71
2022/05/27 04:12:36;;;;;;;7.65;2.33;;;;;;;14.26;71.90;101980.63;4979457;28;20165;-64
2022/05/27 04:15:05;;;;;;;11.18;3.03;;;;;;;14.39;71.72;101987.31;4978952;28;20058;-64
2022/05/27 04:17:33;;;;;;;9.50;3.07;;;;;;;14.68;70.97;101989.78;4978154;28;20522;-64
2022/05/27 04:20:06;;;;;;;8.32;2.53;;;;;;;14.58;70.80;101988.03;4961558;28;20055;-63
2022/05/27 04:22:33;;;;;;;8.90;2.65;;;;;;;14.79;70.62;101985.63;4959766;29;20051;-63
2022/05/27 04:25:01;;;;;;;13.40;2.92;;;;;;;14.65;70.50;101994.81;4959448;29;20051;-70
2022/05/27 04:27:29;;;;;;;8.52;2.20;;;;;;;14.53;71.14;101988.13;4959643;29;20051;-64
2022/05/27 04:29:56;;;;;;;10.68;2.65;;;;;;;14.58;71.09;101999.94;4976349;28;20509;-71
2022/05/27 04:32:25;;;;;;;8.82;2.58;;;;;;;14.51;71.23;101999.53;4978910;28;20051;-71
2022/05/27 04:34:53;;;;;;;9.57;2.42;;;;;;;14.60;71.47;101997.69;4978862;28;20363;-71
2022/05/27 04:37:23;;;;;;;9.75;3.00;;;;;;;14.75;70.62;102001.28;4983081;28;20544;-70
2022/05/27 04:39:51;;;;;;;6.63;2.88;;;;;;;14.30;71.84;102005.78;4996769;28;20054;-71
2022/05/27 04:42:19;;;;;;;9.00;3.42;;;;;;;14.07;72.82;102001.25;4998067;28;20050;-65
2022/05/27 04:44:47;;;;;;;9.60;3.75;;;;;;;14.05;73.50;101995.19;4997867;28;20059;-63
2022/05/27 04:47:14;;;;;;;12.35;4.18;;;;;;;14.23;72.92;101999.81;4979966;28;20073;-72
2022/05/27 04:49:50;;;;;;;9.77;3.83;;;;;;;14.09;73.38;101988.72;4998087;28;20062;-71
2022/05/27 04:52:19;;;;;;;8.55;3.47;;;;;;;14.37;72.42;101990.41;4996901;28;20061;-70
2022/05/27 04:54:47;;;;;;;10.40;3.20;;;;;;;14.56;71.87;101991.13;5012731;28;20065;-71
2022/05/27 04:57:34;;;;;;;8.63;3.05;;;;;;;14.59;71.52;101993.25;4997785;28;20065;-71
2022/05/27 05:00:10;;;;;;;8.57;3.28;;;;;;;14.66;71.64;102002.00;5012822;28;20047;-72
2022/05/27 05:02:37;;;;;;;9.60;3.30;;;;;;;14.43;72.01;101999.44;4996791;28;20084;-67
2022/05/27 05:05:15;;;;;;;9.00;3.55;;;;;;;14.44;72.14;101998.31;5010277;28;20054;-71
2022/05/27 05:07:45;;;;;;;8.68;3.10;;;;;;;14.28;73.06;101996.97;4996699;28;20054;-71
2022/05/27 05:10:15;;;;;;;12.40;4.35;;;;;;;14.10;73.73;102006.16;4997954;28;20042;-70
2022/05/27 05:12:43;;;;;;;12.80;4.30;;;;;;;14.04;74.66;102001.81;4996866;28;20046;-72
2022/05/27 05:15:12;;;;;;;12.45;3.25;;;;;;;14.00;74.78;102000.81;4995849;28;20425;-73
2022/05/27 05:17:40;;;;;;;10.98;4.03;;;;;;;13.92;75.56;101993.19;4996833;28;20042;-63
2022/05/27 05:20:09;;;;;;;12.07;3.75;;;;;;;14.05;75.28;102000.72;4982423;28;20051;-65
2022/05/27 05:22:37;;;;;;;14.52;4.28;;;;;;;14.46;73.95;102004.38;4992740;28;20066;-63
2022/05/27 05:25:05;;;;;;;11.02;4.05;;;;;;;14.68;73.00;102007.22;4977698;28;20062;-63
2022/05/27 05:27:34;;;;;;;13.90;6.25;;;;;;;14.53;73.29;102002.00;4976644;28;20066;-65
2022/05/27 05:30:03;;;;;;;12.63;6.17;;;;;;;14.67;73.29;102002.81;4990836;28;20508;-64
2022/05/27 05:32:30;;;;;;;19.65;6.70;;;;;;;14.37;73.58;102006.22;4994634;28;20058;-63
2022/05/27 05:34:59;;;;;;;19.45;6.70;;;;;;;14.26;74.79;102002.00;4994221;28;20050;-71
2022/05/27 05:37:27;;;;;;;11.47;6.17;;;;;;;14.33;74.19;102007.97;4994869;28;20578;-72
2022/05/27 05:39:54;;;;;;;15.68;8.82;;;;;;;14.54;73.67;101996.16;4997114;28;20055;-63
2022/05/27 05:42:22;;;;;;;19.08;7.65;;;;;;;14.72;73.28;102001.88;4997442;28;20054;-73
2022/05/27 05:44:50;;;;;;;14.02;6.97;;;;;;;14.90;72.43;101989.84;5009183;28;20042;-63
2022/05/27 05:47:18;;;;;;;18.13;8.30;;;;;;;14.93;72.30;101997.53;4997057;28;20050;-71
2022/05/27 05:49:45;;;;;;;15.50;7.38;;;;;;;14.61;73.48;102001.25;4997167;28;20140;-71
2022/05/27 05:52:13;;;;;;;16.13;9.10;;;;;;;14.55;73.80;101996.97;4997156;28;20054;-65
2022/05/27 05:54:40;;;;;;;20.50;9.13;;;;;;;14.50;74.12;102002.63;4995256;28;20165;-64
2022/05/27 05:57:08;;;;;;;15.18;9.05;;;;;;;14.33;75.04;102013.50;5012008;28;20050;-64
2022/05/27 05:59:38;;;;;;;15.13;8.80;;;;;;;14.49;74.63;101999.03;4997312;28;20051;-64
2022/05/27 06:02:07;;;;;;;15.60;7.60;;;;;;;14.87;73.97;102001.56;4996968;28;20410;-64
2022/05/27 06:04:35;;;;;;;18.33;4.90;;;;;;;14.77;74.03;102010.91;4978794;28;20058;-65
2022/05/27 06:07:08;;;;;;;12.43;4.78;;;;;;;14.55;74.93;102014.44;4993436;28;20070;-64
2022/05/27 06:09:36;;;;;;;12.80;4.32;;;;;;;14.55;75.10;102010.84;5010712;28;20049;-65
2022/05/27 06:12:04;;;;;;;15.00;4.22;;;;;;;14.80;74.76;102013.09;4995429;28;20057;-65
2022/05/27 06:14:31;;;;;;;8.88;3.17;;;;;;;14.16;76.61;102018.78;5011583;28;20057;-65
2022/05/27 06:16:59;;;;;;;12.10;3.40;;;;;;;14.31;76.82;102015.78;4996547;28;20054;-64
2022/05/27 06:19:26;;;;;;;9.18;3.05;;;;;;;14.07;77.71;102015.09;4992184;28;20042;-63
2022/05/27 06:21:53;;;;;;;12.40;3.25;;;;;;;14.15;77.68;102006.06;4995149;28;20557;-71
2022/05/27 06:24:21;;;;;;;9.93;3.08;;;;;;;14.36;77.40;102013.72;4996464;28;20050;-71
2022/05/27 06:26:48;;;;;;;7.63;3.17;;;;;;;14.60;76.33;102014.34;4994001;28;20066;-64
2022/05/27 06:34:47;;;;;;;15.23;3.28;;;;;;;14.72;76.94;102019.34;4996227;28;20057;-66
2022/05/27 06:37:18;;;;;;;9.38;2.70;;;;;;;14.75;76.09;102023.47;4994704;28;20405;-64
2022/05/27 06:39:46;;;;;;;10.93;3.30;;;;;;;14.69;76.38;102031.06;4994548;28;20057;-65
2022/05/27 06:42:14;;;;;;;10.95;3.63;;;;;;;14.74;76.10;102028.19;4995061;28;20066;-65
2022/05/27 06:45:03;;;;;;;9.13;2.83;;;;;;;14.80;75.95;102024.19;5009506;28;20061;-72
2022/05/27 06:47:31;;;;;;;10.90;3.30;;;;;;;14.60;76.21;102022.66;4995165;28;20054;-71
2022/05/27 06:49:58;;;;;;;10.43;3.38;;;;;;;14.54;77.21;102026.66;5011486;28;20050;-71
2022/05/27 06:52:27;;;;;;;14.10;3.83;;;;;;;14.87;76.57;102027.34;4994255;28;20218;-71
2022/05/27 06:54:54;;;;;;;9.77;3.17;;;;;;;14.84;75.50;102027.13;4994223;28;20042;-71
2022/05/27 06:57:23;;;;;;;9.38;3.47;;;;;;;15.06;74.68;102024.44;4978072;28;20066;-64
2022/05/27 06:59:50;;;;;;;11.38;4.10;;;;;;;15.02;74.22;102024.25;5011021;28;20046;-71
2022/05/27 07:02:18;;;;;;;11.65;4.18;;;;;;;15.03;74.78;102022.31;4994425;28;20058;-71
2022/05/27 07:04:45;;;;;;;14.07;4.45;;;;;;;14.79;75.61;102025.31;5009126;28;20050;-70
2022/05/27 07:07:13;;;;;;;10.85;4.63;;;;;;;14.88;75.41;102023.44;4994114;28;20426;-72
2022/05/27 07:09:40;;;;;;;9.85;4.50;;;;;;;15.00;75.62;102015.41;4994326;28;20077;-65
2022/05/27 07:12:11;;;;;;;18.48;7.88;;;;;;;14.88;75.36;102029.00;4995554;28;20656;-65
2022/05/27 07:14:39;;;;;;;20.10;8.23;;;;;;;15.14;74.90;102021.75;4995771;28;20050;-64
2022/05/27 07:17:07;;;;;;;18.63;8.52;;;;;;;15.03;74.89;102023.09;4995105;28;20042;-71
2022/05/27 07:19:37;;;;;;;;;;;;;;;15.19;74.23;102018.03;4979608;28;20059;-64
2022/05/27 07:22:14;;;;;;;15.98;9.73;;;;;;;15.21;73.80;102016.59;4956989;29;19929;-63
2022/05/27 07:24:42;;;;;;;20.23;8.95;;;;;;;15.34;73.96;102010.16;4957710;28;20055;-64
2022/05/27 07:27:09;;;;;;;23.08;8.65;;;;;;;15.56;73.25;102014.94;4977440;28;20046;-64
2022/05/27 07:29:37;;;;;;;14.07;8.07;;;;;;;15.67;72.93;102011.59;4994192;28;20423;-63
2022/05/27 07:32:04;;;;;;;15.48;7.47;;;;;;;15.96;72.31;102010.31;5010524;28;20536;-72
2022/05/27 07:34:32;;;;;;;13.23;7.35;;;;;;;16.29;71.54;102000.50;4995776;28;20050;-72
2022/05/27 07:36:59;;;;;;;14.85;7.30;;;;;;;16.26;70.85;102012.28;4975918;28;20057;-71
2022/05/27 07:39:27;;;;;;;15.32;7.80;;;;;;;16.32;70.73;102017.38;4995045;28;20051;-71
2022/05/27 07:41:55;;;;;;;19.38;6.97;;;;;;;16.21;69.42;102007.69;4991463;28;20419;-64
2022/05/27 07:44:23;;;;;;;17.23;6.63;;;;;;;16.24;69.59;102022.88;4995315;28;20050;-72
2022/05/27 07:46:52;;;;;;;19.80;7.35;;;;;;;16.35;69.56;102018.69;4995556;28;20046;-71
2022/05/27 07:49:20;;;;;;;10.43;5.63;;;;;;;16.34;69.96;102006.75;4994568;28;20050;-71
2022/05/27 07:52:03;;;;;;;17.15;5.80;;;;;;;16.57;68.51;102007.50;4994050;28;20046;-72
2022/05/27 07:54:32;;;;;;;12.30;6.43;;;;;;;16.57;68.45;102000.00;4995172;28;20046;-71
2022/05/27 07:57:00;;;;;;;13.13;5.82;;;;;;;16.88;68.08;102000.72;4977561;28;20077;-71
2022/05/27 07:59:27;;;;;;;8.88;5.05;;;;;;;16.28;68.70;102005.25;4995310;28;20062;-71
2022/05/27 08:01:55;;;;;;;12.68;5.40;;;;;;;16.32;69.46;102006.25;4995210;28;20042;-71
2022/05/27 08:04:22;;;;;;;11.63;5.10;;;;;;;16.47;69.41;102003.09;5008151;28;20058;-64
2022/05/27 08:06:50;;;;;;;9.23;5.03;;;;;;;16.59;68.62;102008.03;4977659;28;20054;-63
2022/05/27 08:09:17;;;;;;;13.55;4.93;;;;;;;16.63;68.43;102004.25;4991845;28;20054;-72
2022/05/27 08:11:45;;;;;;;14.90;4.70;;;;;;;16.65;68.85;102004.75;4993500;28;20055;-71
2022/05/27 08:14:12;;;;;;;10.40;4.72;;;;;;;16.74;68.48;102007.56;4976018;28;20053;-71
2022/05/27 08:16:41;;;;;;;12.18;4.50;;;;;;;16.77;68.06;102015.28;5009566;28;20524;-71
2022/05/27 08:19:09;;;;;;;12.27;4.55;;;;;;;16.78;67.90;102014.13;4990887;28;20051;-71
2022/05/27 08:21:37;;;;;;;11.90;4.95;;;;;;;16.92;67.73;102011.19;4978961;28;20058;-70
2022/05/27 08:24:09;;;;;;;13.43;4.90;;;;;;;16.90;67.62;102008.75;4962390;28;20050;-71
2022/05/27 08:26:38;;;;;;;15.63;5.57;;;;;;;17.00;67.40;102013.19;4996306;28;20057;-70
2022/05/27 08:29:07;;;;;;;8.77;5.13;;;;;;;16.84;67.40;102015.63;4998488;28;20521;-65
2022/05/27 08:31:35;;;;;;;9.48;4.50;;;;;;;16.35;69.75;102010.34;5012418;28;20059;-65
2022/05/27 08:39:38;;;;;;;9.95;3.80;;;;;;;16.61;69.76;102014.91;5012791;28;20069;-72
2022/05/27 08:42:42;;;;;;;10.18;4.40;;;;;;;16.81;69.10;102014.31;4997993;28;20046;-71
2022/05/27 08:45:28;;;;;;;11.20;4.20;;;;;;;16.72;69.45;102012.63;4998240;28;20050;-63
2022/05/27 08:48:00;;;;;;;10.23;3.88;;;;;;;16.40;70.44;102015.78;5013632;28;20054;-70
2022/05/27 08:50:36;;;;;;;13.32;4.45;;;;;;;16.24;71.44;102009.81;4979392;28;20058;-71
2022/05/27 08:53:32;;;;;;;16.00;5.60;;;;;;;16.36;71.87;102023.94;4998042;28;20054;-72
2022/05/27 09:01:51;;;;;;;14.10;4.07;;;;;;;16.06;73.61;102024.75;4996183;28;20053;-72
2022/05/27 09:04:18;;;;;;;11.27;4.43;;;;;;;15.93;74.45;102020.13;4996863;28;20061;-72
2022/05/27 09:07:18;;;;;;;16.20;4.30;;;;;;;15.88;75.40;102022.19;4997859;28;20051;-71
2022/05/27 09:09:45;;;;;;;10.02;3.65;;;;;;;16.00;74.82;102016.88;4984206;28;20081;-65
2022/05/27 09:12:34;;;;;;;9.73;3.75;;;;;;;16.13;74.53;102015.94;4978204;28;20215;-64
2022/05/27 09:15:11;;;;;;;10.85;4.10;;;;;;;16.51;73.32;102028.28;4997871;28;20053;-64
2022/05/27 09:17:52;;;;;;;9.70;3.67;;;;;;;16.67;72.40;102023.91;5013116;28;20061;-65
2022/05/27 09:20:42;;;;;;;12.52;4.47;;;;;;;16.59;72.39;102030.28;4992007;28;20051;-65
2022/05/27 09:23:31;;;;;;;9.40;3.80;;;;;;;16.90;71.77;102022.66;4990892;28;20383;-65
2022/05/27 09:26:19;;;;;;;8.68;3.05;;;;;;;16.88;71.16;102021.38;4996221;28;20413;-64
2022/05/27 09:29:06;;;;;;;13.90;3.72;;;;;;;16.67;71.79;102015.56;4995655;28;20049;-72
2022/05/27 09:31:42;;;;;;;7.05;2.88;;;;;;;16.64;72.17;102021.78;5012335;28;20517;-71
2022/05/27 09:34:11;;;;;;;6.03;2.90;;;;;;;16.92;71.48;102022.34;5010838;28;20058;-65
2022/05/27 09:36:43;;;;;;;12.03;3.80;;;;;;;16.50;72.41;102019.13;4995615;28;20050;-65
2022/05/27 09:39:14;;;;;;;12.98;3.30;;;;;;;16.49;73.33;102016.66;4997202;28;20309;-64
2022/05/27 09:41:44;;;;;;;10.00;2.97;;;;;;;16.68;72.81;102014.44;4996775;28;20046;-64
2022/05/27 09:44:30;;;;;;;15.38;4.18;;;;;;;16.78;72.07;102014.13;5011678;28;20065;-64
2022/05/27 09:46:58;;;;;;;10.27;3.88;;;;;;;17.17;71.07;102013.22;4995376;28;20491;-64
2022/05/27 09:49:26;;;;;;;14.77;3.75;;;;;;;17.05;71.22;102015.81;4995956;28;20050;-67
2022/05/27 09:51:53;;;;;;;10.00;3.40;;;;;;;17.24;71.14;102017.16;4996795;28;20053;-64
2022/05/27 09:54:35;;;;;;;8.60;3.30;;;;;;;17.13;72.41;102015.00;4996182;28;20485;-66
2022/05/27 09:57:10;;;;;;;8.40;3.03;;;;;;;17.21;71.41;102012.22;4993153;28;20520;-64
2022/05/27 09:59:40;;;;;;;8.07;3.70;;;;;;;17.09;71.84;102014.84;4995121;28;20058;-64
2022/05/27 10:02:27;;;;;;;11.68;4.10;;;;;;;17.32;71.95;102019.13;4996756;28;20370;-65
2022/05/27 10:05:01;;;;;;;9.68;3.80;;;;;;;17.39;71.32;102019.47;4995658;28;20493;-65
2022/05/27 10:07:33;;;;;;;7.40;2.97;;;;;;;17.06;71.43;102017.44;4994330;28;20058;-72
2022/05/27 10:10:32;;;;;;;8.85;3.35;;;;;;;16.95;71.73;102018.91;4993646;28;20621;-71
2022/05/27 10:13:17;;;;;;;7.85;3.13;;;;;;;17.03;71.92;102007.81;5011593;28;20061;-73
2022/05/27 10:15:45;;;;;;;7.57;2.90;;;;;;;17.12;71.78;102005.03;4996815;28;20058;-71
2022/05/27 10:18:14;;;;;;;6.28;3.00;;;;;;;17.17;71.72;102004.88;5011500;28;20065;-72
2022/05/27 10:20:42;;;;;;;7.45;3.22;;;;;;;17.40;70.82;101992.44;4989097;28;20058;-72
2022/05/27 10:23:12;;;;;;;7.80;3.03;;;;;;;17.59;70.28;101993.72;4978835;28;20038;-71
2022/05/27 10:25:43;;;;;;;7.25;2.67;;;;;;;18.08;68.88;101988.72;4994195;28;20050;-71
2022/05/27 10:28:29;;;;;;;6.13;2.40;;;;;;;18.33;67.63;101988.63;4995420;28;20481;-64
2022/05/27 10:31:01;;;;;;;7.63;2.63;;;;;;;18.44;67.22;101983.53;4992698;28;20057;-64
2022/05/27 10:33:43;;;;;;;8.32;3.17;;;;;;;18.72;66.22;101981.88;4995887;28;20061;-71
2022/05/27 10:36:27;;;;;;;6.13;2.65;;;;;;;19.07;65.02;101988.88;4994629;28;20058;-71
2022/05/27 10:39:13;;;;;;;6.35;3.15;;;;;;;19.38;63.72;101977.31;4989161;28;20073;-71
2022/05/27 10:42:09;;;;;;;6.15;2.90;;;;;;;19.08;64.03;101988.53;4977532;28;20053;-71
2022/05/27 10:44:49;;;;;;;6.30;2.33;;;;;;;19.03;64.40;101990.72;4996017;28;20501;-71
2022/05/27 10:47:47;;;;;;;9.88;2.75;;;;;;;18.98;64.20;101994.53;4990340;28;20054;-65
2022/05/27 10:50:29;;;;;;;6.45;3.50;;;;;;;19.10;63.67;101979.81;5008574;28;20062;-64
2022/05/27 10:53:23;;;;;;;7.72;2.97;;;;;;;19.21;62.91;101981.06;4978272;28;20053;-71
2022/05/27 10:55:57;;;;;;;5.03;2.30;;;;;;;18.90;63.21;101989.81;4994593;28;20062;-64
2022/05/27 11:02:27;;;;;;;6.82;2.20;;;;;;;18.27;66.39;101991.94;4957162;29;20057;-64
2022/05/27 11:04:58;;;;;;;4.75;2.03;;;;;;;18.21;66.94;101987.69;4938829;29;20426;-65
2022/05/27 11:07:51;;;;;;;4.97;2.33;;;;;;;18.36;66.16;101981.56;4956012;29;20063;-72
2022/05/27 11:10:36;;;;;;;8.80;2.65;;;;;;;18.74;65.36;101982.38;4982486;28;20117;-64
2022/05/27 11:16:17;;;;;;;6.32;2.40;;;;;;;18.61;64.65;101991.78;4978292;28;20058;-72
2022/05/27 11:18:45;;;;;;;8.35;2.63;;;;;;;18.30;65.18;101986.50;4990839;28;20147;-65
2022/05/27 11:21:17;;;;;;;5.32;2.28;;;;;;;18.04;67.05;101993.31;4993410;28;20054;-65
2022/05/27 11:23:50;;;;;;;4.80;2.42;;;;;;;17.92;67.42;101989.25;4994370;28;20057;-64
2022/05/27 11:26:26;;;;;;;6.55;2.00;;;;;;;17.67;68.70;101983.72;4995494;28;20050;-65
2022/05/27 11:29:42;;;;;;;11.20;2.55;;;;;;;17.83;68.79;101994.03;5010686;28;20054;-65
2022/05/27 11:32:16;;;;;;;4.80;2.15;;;;;;;17.54;69.04;101985.53;4962776;28;20059;-64
2022/05/27 11:34:47;;;;;;;6.88;2.40;;;;;;;17.95;68.47;101985.00;4994878;28;20652;-72
2022/05/27 11:37:39;;;;;;;5.40;2.50;;;;;;;18.22;66.95;101978.97;4994103;28;20058;-71
2022/05/27 11:40:18;;;;;;;7.53;3.30;;;;;;;18.21;67.46;101982.09;4993567;28;20461;-72
2022/05/27 11:43:23;;;;;;;5.50;2.40;;;;;;;18.23;66.55;101977.84;4992997;28;20058;-71
2022/05/27 11:46:16;;;;;;;6.55;2.40;;;;;;;18.26;66.26;101971.59;5010389;28;20074;-72
2022/05/27 11:48:55;;;;;;;6.75;2.30;;;;;;;18.28;66.72;101965.66;4957040;28;20069;-71
2022/05/27 11:51:44;;;;;;;5.90;2.25;;;;;;;18.46;66.46;101968.06;4977881;28;20073;-72
2022/05/27 11:54:15;;;;;;;7.20;2.30;;;;;;;18.86;65.15;101968.50;4999113;28;20054;-71
2022/05/27 11:57:06;;;;;;;6.13;2.30;;;;;;;19.06;64.23;101959.31;4996886;28;20046;-71
2022/05/27 11:59:37;;;;;;;5.80;2.10;;;;;;;18.92;64.33;101951.19;4995618;28;20050;-72
2022/05/27 12:02:29;;;;;;;5.13;2.17;;;;;;;18.78;64.66;101969.34;5009256;28;20057;-71
2022/05/27 12:05:06;;;;;;;5.28;2.08;;;;;;;18.86;64.83;101960.13;4999070;28;20517;-71
2022/05/27 12:07:36;;;;;;;5.75;2.08;;;;;;;18.63;65.46;101965.19;4996903;28;20054;-71
2022/05/27 12:10:12;;;;;;;7.50;2.27;;;;;;;18.47;66.53;101958.56;4997312;28;20065;-71
2022/05/27 12:12:47;;;;;;;6.13;2.10;;;;;;;18.90;65.35;101952.69;4998952;28;20294;-71
2022/05/27 12:15:48;;;;;;;5.05;1.88;;;;;;;19.13;63.89;101956.78;4998754;28;20054;-72
2022/05/27 12:18:33;;;;;;;4.90;2.40;;;;;;;19.27;64.08;101953.69;4941618;28;20070;-71
2022/05/27 12:21:05;;;;;;;4.88;2.40;;;;;;;19.46;63.50;101949.28;4993793;28;20058;-73
2022/05/27 12:23:35;;;;;;;5.00;2.00;;;;;;;19.93;61.92;101950.59;4979202;28;20513;-71